• Join FlightAware (Why Join?)
  • Login
  • US Flag 
12:35AM EDT


 

Airport Tracker/Info


-or-


 

Live Flight TrackerFlight Track Log ✈ UAL709 ✈ 27-Jun-2013 ✈ KORD - KSAN

Flight Track Log - Related Links

Times and Time Zones

All times are in EDT time to prevent confusion due to time zone crossing. See the UAL709 flight status page for this flight to view local times or setup timezone preferences in your user account.

Time Position Orientation Groundspeed Altitude Reporting Facility
EDT Latitude Longitude Course Direction KTS MPH feet Rate Location/Type
09:32AM 42.0000 -88.0000 252° West 193 222 3,000  Level Chicago TRACON
09:33AM 42.0000 -88.0833 270° West 243 280 4,900 2,340 Climbing Chicago TRACON
09:34AM 42.0000 -88.1667 270° West 263 303 7,500 2,640 Climbing Chicago TRACON
09:35AM 41.8308 -88.4948 254° West  Level FlightAware Approximate
09:35AM 42.0000 -88.2667 270° West 280 322 9,700  Level Chicago TRACON
09:36AM 41.7975 -88.6459 254° West  Level FlightAware Approximate
09:36AM 41.9894 -88.3742 263° West 284 327 12,000  Level Chicago Center
09:37AM 41.7639 -88.7968 253° West  Level FlightAware Approximate
09:37AM 41.9700 -88.4811 256° West 296 341 14,300  Level Chicago Center
09:38AM 41.7298 -88.9474 252° West  Level FlightAware Approximate
09:38AM 41.9497 -88.5906 256° West 303 349 16,400  Level Chicago Center
09:39AM 41.9264 -88.7239 257° West 308 354 18,700 1,860 Climbing Chicago Center
09:40AM 41.8889 -88.8350 246° West 329 379 20,300 1,380 Climbing Chicago Center
09:41AM 41.8578 -88.9464 249° West 323 372 21,600 780 Climbing Chicago Center
09:42AM 41.8203 -89.0692 248° West 354 407 22,000 540 Climbing Chicago Center
09:43AM 41.7786 -89.2003 247° West 381 438 22,800 960 Climbing Chicago Center
09:44AM 41.7292 -89.3633 248° West 394 453 24,000 1,140 Climbing Chicago Center
09:45AM 41.6850 -89.5011 247° West 404 465 25,200 1,020 Climbing Chicago Center
09:46AM 41.6464 -89.6297 248° West 408 470 26,200 960 Climbing Chicago Center
09:47AM 41.6022 -89.7681 247° West 407 468 27,300 960 Climbing Chicago Center
09:49AM 41.5481 -89.9389 247° West 418 481 28,200 720 Climbing Chicago Center
09:50AM 41.5017 -90.0847 247° West 427 491 28,800 720 Climbing Chicago Center
09:51AM 41.4539 -90.2319 247° West 434 499 29,700 900 Climbing Chicago Center
09:52AM 41.4058 -90.3800 247° West 437 503 30,700 1,020 Climbing Chicago Center
09:53AM 41.3586 -90.5267 247° West 435 501 31,900 1,020 Climbing Chicago Center
09:54AM 41.3069 -90.7042 249° West 433 498 32,900 960 Climbing Chicago Center
09:55AM 41.2775 -90.8508 255° West 418 481 33,900 480 Climbing Chicago Center
09:56AM 41.2483 -90.9975 255° West 414 476 34,000  Climbing Chicago Center
09:57AM 41.2183 -91.1428 255° West 409 471 34,000  Level Chicago Center
09:58AM 41.1881 -91.2894 255° West 411 473 34,000  Level Chicago Center
09:59AM 41.1511 -91.4653 254° West 413 475 34,000  Level Chicago Center
10:00AM 41.1211 -91.6122 255° West 414 476 34,000  Level Chicago Center
10:01AM 41.0886 -91.7639 254° West 416 479 34,000  Level Chicago Center
10:02AM 41.0578 -91.9092 254° West 415 478 34,000  Level Chicago Center
10:03AM 41.0264 -92.0533 254° West 413 475 34,000  Level Chicago Center
10:04AM 40.9953 -92.1961 254° West 410 472 34,000  Level Chicago Center
10:05AM 40.9572 -92.3731 254° West 418 481 34,000  Level Chicago Center
10:06AM 40.9256 -92.5186 254° West 417 480 34,000  Level Chicago Center
10:07AM 40.8931 -92.6658 254° West 422 486 34,000  Level Chicago Center
10:08AM 40.8606 -92.8119 254° West 421 484 34,000  Level Chicago Center
10:09AM 40.8214 -92.9875 254° West 421 484 34,000  Level Chicago Center
10:10AM 40.7886 -93.1336 254° West 421 484 34,000  Level Chicago Center
10:11AM 40.7556 -93.2808 254° West 424 488 34,000  Level Chicago Center
10:12AM 40.7219 -93.4281 253° West 425 489 34,000  Level Chicago Center
10:14AM 40.6775 -93.6339 254° West 428 493 34,000  Level Minneapolis Center
10:15AM 40.6658 -93.7842 264° West 424 488 34,000 -60 Level Minneapolis Center
10:16AM 40.6642 -93.9342 269° West 417 480 33,900  Descending Minneapolis Center
10:17AM 40.6639 -94.1178 270° West 421 484 34,000  Climbing Minneapolis Center
10:18AM 40.6617 -94.2722 269° West 424 488 34,000  Level Minneapolis Center
10:19AM 40.6586 -94.4297 269° West 431 496 34,000  Level Minneapolis Center
10:20AM 40.6572 -94.6064 269° West 430 495 34,100  Climbing Minneapolis Center
10:21AM 40.6581 -94.7619 270° West 426 490 34,000 -60 Descending Minneapolis Center
10:22AM 40.6558 -94.9175 269° West 424 488 34,000  Level Minneapolis Center
10:23AM 40.6567 -95.0692 270° West 418 481 34,000  Level Minneapolis Center
10:24AM 40.6581 -95.2200 271° West 412 474 34,000  Level Minneapolis Center
10:25AM 40.6592 -95.3706 271° West 409 471 34,000  Level Minneapolis Center
10:26AM 40.6622 -95.5181 272° West 406 467 34,000  Level Minneapolis Center
10:27AM 40.6639 -95.7011 271° West 408 470 34,000  Level Minneapolis Center
10:28AM 40.6844 -95.8539 280° West 416 479 34,000  Level Minneapolis Center
10:29AM 40.7108 -96.0047 283° West 421 484 34,100  Climbing Minneapolis Center
10:30AM 40.7350 -96.1569 282° West 422 486 34,000  Descending Minneapolis Center
10:31AM 40.7606 -96.3119 282° West 425 489 34,100  Climbing Minneapolis Center
10:32AM 40.7314 -96.4678 256° West 436 502 34,100 -60 Level Minneapolis Center
10:33AM 40.6886 -96.6181 249° West 439 505 34,000 -60 Descending Minneapolis Center
10:34AM 40.6383 -96.7972 250° West 435 501 34,000  Level Minneapolis Center
10:35AM 40.5953 -96.9464 249° West 435 501 34,000  Level Minneapolis Center
10:36AM 40.5519 -97.0967 249° West 438 504 34,000  Level Minneapolis Center
10:37AM 40.5094 -97.2456 249° West 436 502 34,000  Level Minneapolis Center
10:38AM 40.4658 -97.3931 249° West 438 504 34,000  Level Minneapolis Center
10:39AM 40.4219 -97.5431 249° West 438 504 34,000  Level Minneapolis Center
10:40AM 40.3692 -97.7242 249° West 441 507 34,000  Level Minneapolis Center
10:42AM 40.3236 -97.8739 248° West 441 507 34,000  Level Minneapolis Center
10:43AM 40.2803 -98.0225 249° West 439 505 34,000  Level Minneapolis Center
10:44AM 40.2356 -98.1703 248° West 437 503 34,000  Level Minneapolis Center
10:45AM 40.1917 -98.3172 249° West 435 501 34,000  Level Minneapolis Center
10:46AM 40.1472 -98.4647 249° West 435 501 34,000  Level Minneapolis Center
10:47AM 40.1022 -98.6133 248° West 437 503 34,000  Level Minneapolis Center
10:48AM 40.0486 -98.7906 248° West 436 502 34,000  Level Minneapolis Center
10:49AM 40.0028 -98.9375 248° West 436 502 34,000  Level Minneapolis Center
10:50AM 39.9656 -99.0544 247° West 436 502 34,000  Level Denver Center
10:51AM 39.9206 -99.2014 248° West 434 499 34,000  Level Denver Center
10:52AM 39.8742 -99.3481 248° West 435 501 34,000  Level Denver Center
10:53AM 39.8278 -99.4961 248° West 441 507 34,000  Level Denver Center
10:54AM 39.7714 -99.6739 248° West 442 509 34,000  Level Denver Center
10:55AM 39.7253 -99.8206 248° West 439 505 34,000  Level Denver Center
10:56AM 39.6775 -99.9683 247° West 443 510 34,000  Level Denver Center
10:57AM 39.6317 -100.1089 247° West 442 509 34,000  Level Denver Center
10:58AM 39.5789 -100.2747 248° West 445 512 34,000  Level Denver Center
10:59AM 39.5328 -100.4161 247° West 444 511 34,000  Level Denver Center
11:00AM 39.4786 -100.5806 247° West 444 511 34,000  Level Denver Center
11:01AM 39.4331 -100.7222 247° West 446 513 34,000  Level Denver Center
11:02AM 39.3786 -100.8842 247° West 442 509 34,000  Level Denver Center
11:03AM 39.3317 -101.0244 247° West 443 510 34,000  Level Denver Center
11:04AM 39.2778 -101.1889 247° West 444 511 34,000  Level Denver Center
11:05AM 39.2311 -101.3283 247° West 444 511 34,000  Level Denver Center
11:06AM 39.1758 -101.4881 246° West 437 503 34,000  Level Denver Center
11:07AM 39.1289 -101.6286 247° West 444 511 34,000  Level Denver Center
11:08AM 39.0819 -101.7681 247° West 440 506 34,000 120 Level Denver Center
11:09AM 39.0269 -101.9269 246° West 437 503 34,300 480 Climbing Denver Center
11:10AM 38.9794 -102.0644 246° West 439 505 35,000 720 Climbing Denver Center
11:11AM 38.9247 -102.2233 246° West 438 504 35,900 480 Climbing Denver Center
11:12AM 38.8775 -102.3597 246° West 438 504 36,000  Climbing Denver Center
11:13AM 38.8222 -102.5175 246° West 436 502 36,000  Level Denver Center
11:14AM 38.7739 -102.6539 246° West 438 504 36,000  Level Denver Center
11:16AM 38.7192 -102.8119 246° West 442 509 36,000  Level Denver Center
11:17AM 38.6781 -102.9258 245° Southwest 442 509 36,000  Level Denver Center
11:18AM 38.6133 -103.1056 245° Southwest 437 503 36,000  Level Denver Center
11:19AM 38.5644 -103.2450 246° West 441 507 36,000  Level Denver Center
11:20AM 38.5069 -103.4033 245° Southwest 440 506 36,000  Level Denver Center
11:21AM 38.4586 -103.5364 245° Southwest 441 507 36,000  Level Denver Center
11:22AM 38.4008 -103.6956 245° Southwest 442 509 36,000  Level Denver Center
11:23AM 38.3503 -103.8319 245° Southwest 444 511 36,000  Level Denver Center
11:24AM 38.2928 -103.9906 245° Southwest 444 511 36,000  Level Denver Center
11:25AM 38.2414 -104.1269 244° Southwest 447 514 36,000  Level Denver Center
11:26AM 38.1825 -104.2858 245° Southwest 447 514 36,000  Level Denver Center
11:27AM 38.1317 -104.4219 245° Southwest 448 516 36,000  Level Denver Center
11:28AM 38.0728 -104.5811 245° Southwest 447 514 36,000  Level Denver Center
11:29AM 38.0214 -104.7156 244° Southwest 445 512 36,000  Level Denver Center
11:30AM 37.9786 -104.8289 244° Southwest 447 514 36,000  Level Denver Center
11:31AM 37.9097 -105.0103 244° Southwest 448 516 36,000  Level Denver Center
11:32AM 37.8489 -105.1689 244° Southwest 449 517 36,000  Level Denver Center
11:33AM 37.7950 -105.3069 244° Southwest 454 522 36,000  Level Denver Center
11:34AM 37.7511 -105.4211 244° Southwest 455 524 36,000  Level Denver Center
11:35AM 37.6794 -105.6061 244° Southwest 460 529 36,000  Level Denver Center
11:36AM 37.6158 -105.7675 244° Southwest 461 531 36,000  Level Denver Center
11:37AM 37.5633 -105.9067 245° Southwest 460 529 36,000  Level Denver Center
11:38AM 37.5031 -106.0583 243° Southwest 460 529 36,000  Level Denver Center
11:39AM 37.4481 -106.1944 243° Southwest 457 526 36,000  Level Denver Center
11:41AM 37.3767 -106.3789 244° Southwest 459 528 36,000  Level Denver Center
11:42AM 37.3114 -106.5381 243° Southwest 459 528 36,000  Level Denver Center
11:43AM 37.2575 -106.6767 244° Southwest 460 529 36,000  Level Denver Center
11:44AM 37.1919 -106.8350 243° Southwest 458 527 36,000  Level Denver Center
11:45AM 37.1367 -106.9711 243° Southwest 458 527 36,000  Level Denver Center
11:46AM 37.0717 -107.1306 243° Southwest 459 528 36,000  Level Denver Center
11:47AM 37.0150 -107.2683 243° Southwest 463 533 36,000  Level Denver Center
11:48AM 36.9592 -107.4058 243° Southwest 466 536 36,000  Level Denver Center
11:49AM 36.8928 -107.5669 243° Southwest 466 536 36,000  Level Denver Center
11:50AM 36.8367 -107.7017 243° Southwest 460 529 36,000  Level Denver Center
11:51AM 36.7722 -107.8572 243° Southwest 453 521 36,000  Level Denver Center
11:52AM 36.7164 -107.9919 243° Southwest 455 524 36,000  Level Denver Center
11:53AM 36.6506 -108.1483 242° Southwest 458 527 36,000  Level Denver Center
11:54AM 36.5931 -108.2839 242° Southwest 462 532 36,000  Level Denver Center
11:55AM 36.5267 -108.4417 242° Southwest 463 533 36,000  Level Denver Center
11:56AM 36.4800 -108.5533 243° Southwest 460 529 36,000  Level Denver Center
11:57AM 36.4144 -108.7089 242° Southwest 458 527 36,000  Level Denver Center
11:58AM 36.3475 -108.8650 242° Southwest 461 531 36,000  Level Denver Center
11:59AM 36.2803 -109.0200 242° Southwest 462 532 36,000  Level Denver Center
12:00PM 36.2222 -109.1528 242° Southwest 463 533 36,000  Level Denver Center
12:01PM 36.1536 -109.3069 241° Southwest 462 532 36,000  Level Denver Center
12:02PM 36.0958 -109.4400 242° Southwest 462 532 36,000  Level Albuquerque Center
12:03PM 36.0275 -109.5944 241° Southwest 460 529 36,000  Level Albuquerque Center
12:04PM 35.9781 -109.7056 241° Southwest 461 531 36,000  Level Denver Center
12:06PM 35.9006 -109.8819 242° Southwest 458 527 36,000  Level Denver Center
12:06PM 35.8389 -110.0128 240° Southwest 461 531 36,000  Level Albuquerque Center
12:07PM 35.7700 -110.1661 241° Southwest 459 528 36,000  Level Albuquerque Center
12:08PM 35.7100 -110.2992 241° Southwest 462 532 36,000  Level Albuquerque Center
12:09PM 35.6419 -110.4536 242° Southwest 461 531 36,000  Level Albuquerque Center
12:11PM 35.5814 -110.5847 240° Southwest 461 531 36,000  Level Albuquerque Center
12:12PM 35.5117 -110.7378 241° Southwest 459 528 36,000  Level Albuquerque Center
12:13PM 35.4528 -110.8675 241° Southwest 456 525 36,000  Level Albuquerque Center
12:14PM 35.3819 -111.0183 240° Southwest 456 525 36,000  Level Albuquerque Center
12:15PM 35.3239 -111.1489 241° Southwest 456 525 36,000  Level Albuquerque Center
12:16PM 35.2600 -111.2967 242° Southwest 461 531 36,000  Level Albuquerque Center
12:17PM 35.1975 -111.4289 240° Southwest 453 521 36,000  Level Albuquerque Center
12:18PM 35.1361 -111.5611 240° Southwest 450 518 36,000  Level Albuquerque Center
12:19PM 35.0736 -111.6939 240° Southwest 452 520 36,000  Level Albuquerque Center
12:20PM 35.0031 -111.8439 240° Southwest 450 518 36,000  Level Albuquerque Center
12:21PM 34.9411 -111.9778 241° Southwest 454 522 36,000  Level Albuquerque Center
12:22PM 34.8936 -112.1178 248° West 451 519 36,000  Level Albuquerque Center
12:23PM 34.8500 -112.2617 250° West 453 521 36,000  Level Albuquerque Center
12:24PM 34.8078 -112.4042 250° West 450 518 36,000  Level Albuquerque Center
12:25PM 34.7567 -112.5756 250° West 449 517 36,000  Level Albuquerque Center
12:26PM 34.7131 -112.7181 250° West 450 518 36,000  Level Albuquerque Center
12:27PM 34.6708 -112.8617 250° West 451 519 36,000  Level Albuquerque Center
12:28PM 34.6269 -113.0039 249° West 451 519 36,000  Level Albuquerque Center
12:29PM 34.5836 -113.1469 250° West 452 520 36,000  Level Albuquerque Center
12:30PM 34.5386 -113.2908 249° West 455 524 36,000  Level Albuquerque Center
12:31PM 34.4856 -113.4619 249° West 455 524 36,000  Level Albuquerque Center
12:32PM 34.4414 -113.6056 250° West 455 524 36,000 -480 Level Albuquerque Center
12:33PM 34.3911 -113.7647 249° West 460 529 35,100 -1,020 Descending Albuquerque Center
12:34PM 34.3472 -113.9069 250° West 456 525 34,000 -540 Descending Albuquerque Center
12:35PM 34.3022 -114.0506 249° West 456 525 34,000  Level Albuquerque Center
12:36PM 34.2561 -114.1942 249° West 456 525 34,000 -360 Level Albuquerque Center
12:37PM 34.2119 -114.3386 250° West 457 526 33,300 -1,020 Descending Albuquerque Center
12:38PM 34.1708 -114.4672 249° West 458 527 32,000 -1,500 Descending Los Angeles Center
12:39PM 34.1258 -114.6092 249° West 457 526 30,400 -1,620 Descending Los Angeles Center
12:40PM 34.0631 -114.7700 245° Southwest 445 512 28,700 -1,260 Descending Los Angeles Center
12:41PM 34.0069 -114.8972 242° Southwest 435 501 27,900 -360 Descending Los Angeles Center
12:42PM 33.9525 -115.0231 242° Southwest 425 489 28,000  Climbing Los Angeles Center
12:44PM 33.8964 -115.1483 242° Southwest 426 490 27,900 -60 Descending Los Angeles Center
12:45PM 33.8397 -115.2758 242° Southwest 432 497 27,900  Level Los Angeles Center
12:46PM 33.7833 -115.4014 242° Southwest 428 493 28,000 -420 Climbing Los Angeles Center
12:47PM 33.7150 -115.5528 242° Southwest 430 495 27,100 -1,140 Descending Los Angeles Center
12:48PM 33.6625 -115.6719 242° Southwest 409 471 25,700 -1,440 Descending Los Angeles Center
12:49PM 33.6083 -115.7850 240° Southwest 394 453 24,200 -900 Descending Los Angeles Center
12:50PM 33.5486 -115.8858 235° Southwest 373 429 23,900 -120 Descending Los Angeles Center
12:51PM 33.4739 -115.9831 227° Southwest 397 457 24,000 -900 Climbing Los Angeles Center
12:52PM 33.3714 -116.0844 220° Southwest 400 460 22,100 -2,040 Descending Los Angeles Center
12:53PM 33.2864 -116.1683 220° Southwest 397 457 19,900 -2,160 Descending Los Angeles Center
12:54PM 33.2031 -116.2503 219° Southwest 391 450 17,700 -2,220 Descending Los Angeles Center
12:55PM 33.1211 -116.3314 220° Southwest 386 444 15,400 -2,520 Descending Los Angeles Center
12:56PM 33.0308 -116.4189 219° Southwest 374 430 12,600 -1,800 Descending Los Angeles Center
12:57PM 32.9667 -116.4650 211° Southwest 349 402 11,800 -960 Descending Los Angeles Center
12:58PM 32.8761 -116.5217 208° Southwest 309 356 10,700 -1,260 Descending Los Angeles Center
12:59PM 32.8050 -116.5667 208° Southwest 297 342 9,200 -1,080 Descending Los Angeles Center
01:00PM 32.7344 -116.6100 207° Southwest 291 335 8,500 -1,200 Descending Los Angeles Center
01:01PM 32.6531 -116.6614 208° Southwest 281 323 6,800 -1,020 Descending Los Angeles Center
01:03PM 32.6500 -116.7833 268° West 246 283 6,000 -480 Descending Southern California TRACON
01:03PM 32.6514 -116.8219 272° West 255 293 5,900 -540 Descending Los Angeles Center
01:04PM 32.6656 -116.9006 282° West 247 284 5,200 -720 Descending Los Angeles Center